Time;durP1;ratioP1;P1;durP2;ratioP2;P2;SDS_P1;SDS_P2;PMS_P1;PMS_P2;Temp;Humidity;BMP_temperature;BMP_pressure;BME280_temperature;BME280_humidity;BME280_pressure;Samples;Min_cycle;Max_cycle;Signal;HPM_P1;HPM_P2
2022/08/09 00:00:09;;;;;;;;;13.20;13.20;;;;;27.05;50.39;99605.91;5064562;28;8844;-78
2022/08/09 00:02:59;;;;;;;;;14.80;13.60;;;;;27.22;49.44;99604.75;5020539;28;9743;-77
2022/08/09 00:05:29;;;;;;;;;15.80;14.40;;;;;27.48;48.34;99613.69;5064773;28;8849;-78
2022/08/09 00:08:18;;;;;;;;;11.60;11.60;;;;;27.33;49.59;99617.44;5049497;28;8939;-78
2022/08/09 00:11:00;;;;;;;;;13.00;12.20;;;;;28.05;47.25;99628.47;5050206;28;8872;-78
2022/08/09 00:13:49;;;;;;;;;12.00;11.00;;;;;28.56;45.36;99638.22;5050314;28;8860;-79
2022/08/09 00:16:18;;;;;;;;;11.20;11.00;;;;;28.90;44.00;99636.59;5050648;28;9660;-77
2022/08/09 00:19:04;;;;;;;;;14.80;14.00;;;;;28.42;46.25;99638.38;5048885;28;8845;-78
2022/08/09 00:21:39;;;;;;;;;18.20;18.20;;;;;28.59;46.33;99632.66;5050397;28;8861;-78
2022/08/09 00:24:25;;;;;;;;;13.60;13.00;;;;;28.94;46.22;99639.88;5049449;28;8856;-77
2022/08/09 00:26:55;;;;;;;;;15.00;14.40;;;;;29.26;47.46;99636.59;5057351;28;8858;-79
2022/08/09 00:29:27;;;;;;;;;16.50;16.25;;;;;28.88;48.10;99633.13;5069463;28;8881;-79
2022/08/09 00:32:16;;;;;;;;;19.50;19.25;;;;;28.62;49.88;99628.88;5039744;28;8920;-78
2022/08/09 00:34:55;;;;;;;;;19.20;18.00;;;;;28.65;50.46;99636.69;5069403;28;8957;-78
2022/08/09 00:37:27;;;;;;;;;22.25;21.25;;;;;28.60;51.00;99639.72;5065504;28;8837;-78
2022/08/09 00:40:00;;;;;;;;;19.80;19.20;;;;;28.64;51.11;99635.84;5064649;28;9626;-79
2022/08/09 00:42:44;;;;;;;;;20.50;17.00;;;;;28.25;52.66;99637.78;5049213;28;8871;-76
2022/08/09 00:45:33;;;;;;;;;23.75;22.25;;;;;28.51;52.12;99643.06;5049138;28;8895;-78
2022/08/09 00:48:03;;;;;;;;;24.25;22.75;;;;;27.82;54.94;99643.50;5014356;28;8865;-77
2022/08/09 00:50:33;;;;;;;;;22.75;22.25;;;;;28.15;53.78;99653.66;5049266;28;8876;-77
2022/08/09 00:53:07;;;;;;;;;25.50;22.50;;;;;28.37;53.68;99647.63;5051392;28;8895;-78
2022/08/09 00:55:39;;;;;;;;;23.75;23.50;;;;;27.53;56.46;99649.06;5049438;28;8837;-78
2022/08/09 00:58:30;;;;;;;;;26.25;25.25;;;;;26.70;59.91;99648.44;5062833;28;8870;-79
2022/08/09 01:00:59;;;;;;;;;24.25;23.50;;;;;26.28;61.88;99647.56;5068906;28;8967;-77
2022/08/09 01:03:36;;;;;;;;;26.00;24.75;;;;;26.05;63.34;99649.88;5069443;28;9017;-79
2022/08/09 01:06:20;;;;;;;;;26.50;25.75;;;;;25.98;64.28;99649.41;5069040;28;8862;-78
2022/08/09 01:08:58;;;;;;;;;25.00;23.25;;;;;25.84;65.28;99650.25;5087449;28;8859;-79
2022/08/09 01:11:50;;;;;;;;;24.75;23.25;;;;;26.35;63.13;99644.41;5089082;28;8851;-78
2022/08/09 01:14:30;;;;;;;;;23.50;21.75;;;;;27.04;60.46;99649.72;5081259;28;8939;-77
2022/08/09 01:17:04;;;;;;;;;29.50;27.75;;;;;27.17;60.07;99639.91;5067338;28;8854;-79
2022/08/09 01:19:42;;;;;;;;;21.00;21.00;;;;;27.09;61.10;99627.97;5068571;28;8915;-77
2022/08/09 01:22:47;;;;;;;;;27.00;26.75;;;;;27.37;60.67;99629.66;5068266;28;8866;-77
2022/08/09 01:25:46;;;;;;;;;36.25;30.25;;;;;26.78;63.51;99624.69;5068896;28;8858;-78
2022/08/09 01:28:22;;;;;;;;;34.50;32.00;;;;;26.31;65.40;99637.50;5069309;28;8878;-78
2022/08/09 01:30:57;;;;;;;;;26.25;26.25;;;;;25.93;67.29;99632.78;5088444;28;8926;-79
2022/08/09 01:33:30;;;;;;;;;36.00;32.50;;;;;25.55;69.44;99628.00;5104613;28;8872;-77
2022/08/09 01:36:04;;;;;;;;;35.25;30.00;;;;;25.40;70.53;99628.94;5088149;28;8874;-79
2022/08/09 01:38:37;;;;;;;;;31.75;29.50;;;;;25.16;71.89;99618.75;5083482;28;8939;-77
2022/08/09 01:41:13;;;;;;;;;30.00;28.50;;;;;25.05;72.17;99613.19;5067528;28;8857;-78
2022/08/09 01:43:46;;;;;;;;;31.75;29.75;;;;;24.84;73.90;99609.97;5068311;28;8899;-79
2022/08/09 01:46:22;;;;;;;;;32.75;30.25;;;;;24.83;73.87;99608.25;5067545;28;8885;-78
2022/08/09 01:48:57;;;;;;;;;32.25;31.25;;;;;24.60;75.51;99605.13;5082134;28;8878;-80
2022/08/09 01:51:29;;;;;;;;;35.75;32.75;;;;;24.53;76.44;99593.09;5105292;28;8859;-80
2022/08/09 01:54:02;;;;;;;;;32.75;30.50;;;;;24.28;78.37;99591.78;5090124;28;8895;-78
2022/08/09 01:56:33;;;;;;;;;37.00;33.00;;;;;24.48;78.28;99582.66;5090030;28;8973;-79
2022/08/09 01:59:09;;;;;;;;;36.00;33.25;;;;;24.46;78.00;99587.22;5069780;28;8838;-78
2022/08/09 02:01:44;;;;;;;;;35.25;31.25;;;;;24.51;78.07;99582.50;5069281;28;8878;-78
2022/08/09 02:04:31;;;;;;;;;30.00;28.00;;;;;24.43;77.88;99584.72;5071263;28;8986;-79
2022/08/09 02:07:08;;;;;;;;;38.50;32.00;;;;;24.59;77.23;99592.72;5087020;28;8864;-79
2022/08/09 02:10:02;;;;;;;;;38.75;32.75;;;;;24.87;75.69;99597.31;5103161;28;8840;-78
2022/08/09 02:12:33;;;;;;;;;34.50;30.50;;;;;24.83;75.43;99595.78;5087760;28;8847;-78
2022/08/09 02:15:07;;;;;;;;;28.75;28.50;;;;;25.45;72.61;99592.13;5088344;28;9621;-79
2022/08/09 02:17:50;;;;;;;;;29.25;29.00;;;;;25.48;71.95;99583.91;5052273;28;8980;-78
2022/08/09 02:20:41;;;;;;;;;30.75;29.00;;;;;25.89;70.08;99585.81;5041154;28;8840;-78
2022/08/09 02:23:14;;;;;;;;;35.00;32.00;;;;;25.94;69.22;99594.44;5087119;28;9582;-79
2022/08/09 02:25:48;;;;;;;;;35.25;31.00;;;;;26.22;67.87;99595.34;5088699;28;8982;-78
2022/08/09 02:28:27;;;;;;;;;35.75;31.50;;;;;26.08;68.42;99587.34;5070884;28;8949;-79
2022/08/09 02:31:03;;;;;;;;;40.50;34.00;;;;;26.12;69.06;99587.03;5068097;28;8839;-79
2022/08/09 02:33:39;;;;;;;;;34.25;31.25;;;;;25.46;70.87;99602.72;5067624;28;8842;-77
2022/08/09 02:36:31;;;;;;;;;38.50;33.50;;;;;25.70;70.85;99598.63;5080674;28;8957;-80
2022/08/09 02:39:04;;;;;;;;;33.25;31.25;;;;;25.95;69.35;99595.28;5071160;28;8874;-80
2022/08/09 02:41:41;;;;;;;;;33.00;30.75;;;;;26.22;68.27;99587.34;5069452;28;8923;-77
2022/08/09 02:44:14;;;;;;;;;32.25;29.75;;;;;26.44;67.24;99597.47;5068908;28;8870;-77
2022/08/09 02:47:03;;;;;;;;;30.50;29.00;;;;;26.66;66.20;99591.59;5071875;28;8854;-78
2022/08/09 02:49:36;;;;;;;;;36.00;32.25;;;;;26.76;65.42;99606.06;5069320;28;9741;-78
2022/08/09 02:52:13;;;;;;;;;35.25;31.75;;;;;26.77;65.47;99599.78;5067393;28;8815;-76
2022/08/09 02:54:44;;;;;;;;;35.25;31.75;;;;;26.89;64.70;99600.75;5082990;28;8991;-77
2022/08/09 02:57:23;;;;;;;;;34.00;32.50;;;;;27.06;63.78;99596.94;5101106;28;8880;-77
2022/08/09 02:59:54;;;;;;;;;36.25;33.50;;;;;26.68;64.99;99592.34;5067930;28;8870;-78
2022/08/09 03:02:48;;;;;;;;;32.00;31.50;;;;;26.91;64.29;99589.94;5067629;28;9603;-79
2022/08/09 03:05:29;;;;;;;;;38.50;33.50;;;;;26.94;64.06;99579.06;5066879;28;9034;-78
2022/08/09 03:08:04;;;;;;;;;36.75;32.25;;;;;26.70;64.63;99590.44;5067422;28;8866;-78
2022/08/09 03:10:35;;;;;;;;;33.50;32.25;;;;;26.47;65.31;99605.31;5069172;28;8875;-79
2022/08/09 03:13:06;;;;;;;;;33.50;32.25;;;;;26.03;67.00;99601.00;5087342;28;8843;-78
2022/08/09 03:15:39;;;;;;;;;39.00;34.75;;;;;26.42;65.66;99584.19;5102830;28;9609;-78
2022/08/09 03:18:31;;;;;;;;;36.25;31.25;;;;;26.55;65.13;99586.06;5087204;28;8840;-77
2022/08/09 03:21:02;;;;;;;;;32.50;31.50;;;;;26.38;65.34;99597.88;5072446;28;8858;-77
2022/08/09 03:23:31;;;;;;;;;34.25;31.75;;;;;26.30;65.60;99595.72;5102704;28;8919;-78
2022/08/09 03:26:01;;;;;;;;;32.00;31.25;;;;;26.31;65.21;99602.75;5034934;28;8838;-79
2022/08/09 03:28:34;;;;;;;;;36.25;32.00;;;;;26.40;65.06;99606.66;5067121;28;9593;-78
2022/08/09 03:31:04;;;;;;;;;34.25;32.00;;;;;26.09;66.20;99610.44;5051052;28;8886;-79
2022/08/09 03:33:52;;;;;;;;;34.00;31.00;;;;;26.62;64.23;99607.00;5067833;28;8889;-79
2022/08/09 03:36:24;;;;;;;;;35.25;32.50;;;;;26.84;63.54;99613.56;5068372;28;8848;-77
2022/08/09 03:38:56;;;;;;;;;52.00;41.50;;;;;26.81;63.23;99611.13;5068024;28;8968;-77
2022/08/09 03:41:25;;;;;;;;;34.25;32.50;;;;;27.00;62.75;99608.91;5067633;28;8848;-76
2022/08/09 03:44:12;;;;;;;;;32.50;31.50;;;;;26.93;62.55;99612.97;5066233;28;8840;-76
2022/08/09 03:46:43;;;;;;;;;25.75;23.25;;;;;27.10;61.68;99619.84;5035088;28;8945;-79
2022/08/09 03:49:17;;;;;;;;;31.00;28.50;;;;;27.26;61.69;99625.06;5033808;28;8959;-78
2022/08/09 03:51:52;;;;;;;;;30.00;30.00;;;;;27.46;60.67;99634.38;5068104;28;8860;-78
2022/08/09 03:54:30;;;;;;;;;33.75;31.25;;;;;27.55;60.37;99636.44;5067445;28;8898;-78
2022/08/09 03:57:02;;;;;;;;;36.50;32.50;;;;;27.57;59.86;99650.56;5067225;28;8878;-78
2022/08/09 03:59:46;;;;;;;;;28.25;26.75;;;;;27.57;59.04;99655.94;5074756;28;8842;-77
2022/08/09 04:02:24;;;;;;;;;29.00;28.00;;;;;27.72;58.30;99651.31;5069635;28;8858;-78
2022/08/09 04:04:58;;;;;;;;;28.25;27.25;;;;;27.77;58.29;99657.22;5069757;28;8850;-78
2022/08/09 04:07:29;;;;;;;;;32.25;30.00;;;;;27.40;58.37;99653.56;5070082;28;8835;-77
2022/08/09 04:10:21;;;;;;;;;25.75;25.25;;;;;27.27;59.16;99658.91;5069404;28;9632;-77
2022/08/09 04:12:58;;;;;;;;;32.25;30.00;;;;;27.24;59.03;99664.44;5064304;28;8844;-79
2022/08/09 04:15:31;;;;;;;;;30.00;28.25;;;;;27.01;59.80;99663.31;5080384;28;8858;-78
2022/08/09 04:18:20;;;;;;;;;30.50;30.50;;;;;25.94;63.60;99677.28;5067944;28;8862;-78
2022/08/09 04:20:51;;;;;;;;;26.50;25.75;;;;;26.50;61.51;99673.78;5069455;28;8830;-78
2022/08/09 04:23:20;;;;;;;;;36.75;33.75;;;;;26.80;61.08;99676.28;5069496;28;8862;-77
2022/08/09 04:25:53;;;;;;;;;39.25;35.75;;;;;26.81;60.02;99672.66;5069186;28;8854;-80
2022/08/09 04:28:23;;;;;;;;;29.25;25.75;;;;;26.56;60.88;99674.25;5069594;28;9087;-80
2022/08/09 04:31:02;;;;;;;;;31.00;30.75;;;;;26.92;59.81;99671.94;5075982;28;8860;-78
2022/08/09 04:33:37;;;;;;;;;28.25;27.00;;;;;26.27;61.49;99678.78;5091733;28;9655;-78
2022/08/09 04:36:27;;;;;;;;;35.00;32.75;;;;;26.45;60.98;99682.09;5073743;28;8835;-78
2022/08/09 04:38:57;;;;;;;;;32.50;31.00;;;;;26.61;60.18;99680.16;5073134;28;8900;-78
2022/08/09 04:41:28;;;;;;;;;27.50;27.00;;;;;26.26;61.59;99679.75;5074206;28;8855;-79
2022/08/09 04:44:02;;;;;;;;;35.00;31.75;;;;;26.44;61.02;99681.22;5067777;28;8870;-78
2022/08/09 04:46:38;;;;;;;;;28.25;28.25;;;;;26.25;61.66;99678.00;5069033;28;8889;-79
2022/08/09 04:49:32;;;;;;;;;33.00;30.50;;;;;26.33;60.89;99686.41;5068047;28;8866;-78
2022/08/09 04:52:24;;;;;;;;;37.75;32.00;;;;;26.57;60.29;99694.66;5065444;28;8850;-77
2022/08/09 04:54:56;;;;;;;;;31.50;29.75;;;;;26.95;59.53;99690.47;5066513;28;8874;-77
2022/08/09 04:57:27;;;;;;;;;33.50;31.50;;;;;26.75;59.70;99689.09;5082926;28;8863;-78
2022/08/09 05:00:16;;;;;;;;;35.75;33.25;;;;;26.32;61.36;99698.06;5082165;28;10003;-80
2022/08/09 05:02:45;;;;;;;;;30.00;29.25;;;;;26.79;59.14;99690.66;5072127;28;8886;-78
2022/08/09 05:05:20;;;;;;;;;33.50;32.25;;;;;26.31;61.29;99690.97;5068938;28;8854;-79
2022/08/09 05:08:11;;;;;;;;;31.75;31.25;;;;;26.48;59.80;99692.59;5068044;28;8854;-79
2022/08/09 05:10:43;;;;;;;;;35.75;32.25;;;;;25.98;61.82;99689.50;5068016;28;8970;-79
2022/08/09 05:13:12;;;;;;;;;36.50;34.00;;;;;26.15;61.05;99692.94;5073235;28;8850;-78
2022/08/09 05:15:42;;;;;;;;;32.50;30.50;;;;;26.38;59.92;99688.78;5070910;28;8870;-77
2022/08/09 05:18:28;;;;;;;;;31.25;31.00;;;;;26.74;58.60;99690.09;5050137;28;9015;-80
2022/08/09 05:21:17;;;;;;;;;28.50;28.00;;;;;26.38;59.46;99697.66;5047666;28;8863;-80
2022/08/09 05:23:54;;;;;;;;;36.75;32.50;;;;;26.36;59.98;99704.09;5069201;28;8858;-78
2022/08/09 05:26:30;;;;;;;;;33.75;30.00;;;;;26.20;60.05;99702.38;5065188;28;8844;-79
2022/08/09 05:29:18;;;;;;;;;33.25;31.75;;;;;26.58;58.47;99704.44;5069163;28;8842;-78
2022/08/09 05:31:51;;;;;;;;;23.50;21.25;;;;;26.39;58.87;99712.78;5069285;28;8872;-79
2022/08/09 05:34:26;;;;;;;;;32.50;31.00;;;;;25.68;61.18;99719.75;5072480;28;9992;-79
2022/08/09 05:37:02;;;;;;;;;32.00;31.50;;;;;26.12;60.19;99712.69;5068462;28;8905;-78
2022/08/09 05:39:37;;;;;;;;;29.75;28.25;;;;;25.10;62.96;99713.38;5069892;28;8851;-80
2022/08/09 05:42:13;;;;;;;;;35.25;32.00;;;;;25.43;62.27;99714.19;5072029;28;8865;-78
2022/08/09 05:44:50;;;;;;;;;32.50;30.50;;;;;25.52;61.55;99715.44;5075705;28;8824;-72
2022/08/09 05:47:20;;;;;;;;;34.50;31.25;;;;;25.17;62.49;99718.34;5086244;28;8882;-72
2022/08/09 05:49:51;;;;;;;;;32.75;30.75;;;;;25.83;60.92;99717.97;5073193;28;8878;-72
2022/08/09 05:52:40;;;;;;;;;32.75;30.75;;;;;25.64;61.15;99718.25;5067906;28;8850;-72
2022/08/09 05:55:12;;;;;;;;;34.25;32.00;;;;;25.67;61.34;99723.41;5067619;28;8873;-74
2022/08/09 05:57:48;;;;;;;;;35.25;33.25;;;;;25.74;60.47;99725.69;5066863;28;9620;-74
2022/08/09 06:00:27;;;;;;;;;35.50;32.50;;;;;25.63;61.10;99732.56;5067893;28;8870;-74
2022/08/09 06:02:58;;;;;;;;;32.25;31.25;;;;;26.08;59.62;99726.34;5067983;28;8850;-73
2022/08/09 06:05:28;;;;;;;;;32.25;31.25;;;;;26.10;59.26;99725.28;5065144;28;8850;-74
2022/08/09 06:08:17;;;;;;;;;26.50;25.50;;;;;26.01;58.71;99737.41;5066155;28;8869;-74
2022/08/09 06:10:54;;;;;;;;;31.50;30.25;;;;;25.59;61.22;99731.00;5067160;28;8854;-72
2022/08/09 06:13:23;;;;;;;;;27.50;27.25;;;;;25.98;59.16;99732.25;5064478;28;8910;-71
2022/08/09 06:15:52;;;;;;;;;31.50;29.75;;;;;25.36;61.51;99735.03;5066636;28;8866;-74
2022/08/09 06:18:21;;;;;;;;;33.00;30.50;;;;;24.93;63.30;99741.97;5048666;28;8884;-72
2022/08/09 06:20:52;;;;;;;;;32.00;31.00;;;;;25.58;61.26;99747.16;5067258;28;8850;-72
2022/08/09 06:23:25;;;;;;;;;32.25;29.50;;;;;25.92;59.60;99743.31;5067661;28;8823;-73
2022/08/09 06:26:17;;;;;;;;;28.75;28.75;;;;;25.68;60.22;99753.63;5049544;28;8973;-73
2022/08/09 06:28:50;;;;;;;;;33.50;30.50;;;;;25.52;60.84;99751.03;5052283;28;8851;-72
2022/08/09 06:31:29;;;;;;;;;28.50;26.50;;;;;25.46;61.33;99746.91;5080595;28;8858;-72
2022/08/09 06:34:07;;;;;;;;;35.75;32.75;;;;;25.35;62.05;99741.34;5015059;28;8862;-73
2022/08/09 06:36:37;;;;;;;;;31.50;30.25;;;;;25.57;60.72;99745.41;5066826;28;9601;-70
2022/08/09 06:39:12;;;;;;;;;35.00;30.50;;;;;25.32;62.04;99738.00;5082246;28;8932;-73
2022/08/09 06:41:43;;;;;;;;;34.75;32.75;;;;;25.66;60.54;99748.38;5080363;28;8875;-70
2022/08/09 06:44:32;;;;;;;;;34.00;30.75;;;;;25.71;60.46;99745.44;5085193;28;8867;-75
2022/08/09 06:47:02;;;;;;;;;38.25;32.75;;;;;25.44;61.76;99743.47;5085990;28;8883;-78
2022/08/09 06:49:31;;;;;;;;;40.50;35.75;;;;;25.67;61.27;99749.25;5092142;28;8863;-81
2022/08/09 06:52:20;;;;;;;;;37.50;33.50;;;;;25.96;60.57;99752.88;5074875;28;8868;-82
2022/08/09 06:54:52;;;;;;;;;36.50;33.75;;;;;26.29;59.26;99749.06;5103838;28;8885;-80
2022/08/09 06:57:23;;;;;;;;;42.00;34.75;;;;;26.87;57.15;99751.69;5100304;28;8861;-81
2022/08/09 07:00:12;;;;;;;;;36.75;34.25;;;;;26.86;56.90;99749.97;5086257;28;9000;-79
2022/08/09 07:03:02;;;;;;;;;40.75;33.25;;;;;27.24;55.21;99752.81;5086611;28;8873;-80
2022/08/09 07:05:33;;;;;;;;;35.50;33.25;;;;;26.84;56.28;99750.06;5101979;28;8999;-80
2022/08/09 07:08:22;;;;;;;;;35.75;33.00;;;;;27.15;55.80;99751.59;5128096;27;8875;-82
2022/08/09 07:10:52;;;;;;;;;36.00;33.50;;;;;26.88;56.36;99754.28;5081095;28;8871;-81
2022/08/09 07:13:22;;;;;;;;;39.50;34.50;;;;;26.45;57.39;99756.97;5096317;28;8928;-83
2022/08/09 07:15:57;;;;;;;;;35.00;32.50;;;;;26.68;56.88;99752.88;5084428;28;8897;-81
2022/08/09 07:18:46;;;;;;;;;34.25;33.00;;;;;26.93;56.10;99760.16;5087675;28;8852;-81
2022/08/09 07:21:17;;;;;;;;;35.75;32.00;;;;;26.96;55.62;99767.16;5087377;28;8858;-81
2022/08/09 07:23:47;;;;;;;;;41.50;36.25;;;;;26.93;56.17;99762.84;5070671;28;8947;-79
2022/08/09 07:26:26;;;;;;;;;38.75;33.00;;;;;27.12;55.42;99759.81;5071067;28;8862;-81
2022/08/09 07:28:56;;;;;;;;;42.75;36.25;;;;;27.05;55.65;99758.50;5068229;28;8842;-79
2022/08/09 07:31:39;;;;;;;;;40.25;34.00;;;;;27.46;54.34;99757.59;5069732;28;8916;-83
2022/08/09 07:34:15;;;;;;;;;35.50;33.25;;;;;27.86;53.38;99760.25;5069476;28;8864;-83
2022/08/09 07:36:49;;;;;;;;;36.25;34.00;;;;;27.84;52.57;99755.97;5103593;28;8862;-81
2022/08/09 07:39:20;;;;;;;;;35.75;33.75;;;;;28.29;51.80;99761.78;5076314;28;9090;-81
2022/08/09 07:42:10;;;;;;;;;34.50;32.50;;;;;28.43;51.10;99759.00;5073604;28;8842;-84
2022/08/09 07:44:40;;;;;;;;;32.75;30.50;;;;;28.95;50.10;99765.94;5074121;28;8859;-74
2022/08/09 07:47:20;;;;;;;;;36.00;32.50;;;;;27.99;51.89;99763.81;5087976;28;8852;-71
2022/08/09 07:49:51;;;;;;;;;35.25;32.50;;;;;28.32;50.95;99770.47;5069749;28;9597;-71
2022/08/09 07:52:37;;;;;;;;;39.75;36.00;;;;;28.49;50.33;99777.31;5069440;28;8850;-74
2022/08/09 07:55:06;;;;;;;;;35.00;32.50;;;;;28.90;49.45;99778.00;5047939;28;8838;-69
2022/08/09 07:57:37;;;;;;;;;39.75;34.75;;;;;27.74;52.70;99775.34;5066132;28;8967;-69
2022/08/09 08:00:18;;;;;;;;;37.25;34.25;;;;;26.73;54.93;99782.88;5068870;28;8916;-74
2022/08/09 08:03:04;;;;;;;;;37.75;34.25;;;;;26.96;55.24;99775.19;5069116;28;8849;-81
2022/08/09 08:05:36;;;;;;;;;40.50;35.25;;;;;27.58;52.54;99770.19;5070877;28;8912;-82
2022/08/09 08:08:25;;;;;;;;;40.00;34.75;;;;;27.60;52.77;99781.66;5051412;28;8862;-82
2022/08/09 08:11:14;;;;;;;;;39.50;33.50;;;;;28.10;51.17;99778.31;5101703;28;8832;-81
2022/08/09 08:14:03;;;;;;;;;33.25;31.00;;;;;28.77;49.27;99778.03;5080258;28;8890;-82
2022/08/09 08:16:35;;;;;;;;;36.00;33.75;;;;;28.92;48.24;99779.63;5071413;28;8888;-81
2022/08/09 08:19:18;;;;;;;;;36.50;33.25;;;;;28.87;49.12;99778.25;5087010;28;8870;-81
2022/08/09 08:21:49;;;;;;;;;38.00;34.00;;;;;29.10;48.68;99781.91;5092057;28;8871;-82
2022/08/09 08:24:20;;;;;;;;;39.00;33.25;;;;;28.90;48.79;99786.06;5097234;28;8839;-82
2022/08/09 08:26:49;;;;;;;;;37.25;33.00;;;;;29.20;47.70;99791.03;5110064;28;8859;-86
2022/08/09 08:29:25;;;;;;;;;41.50;33.75;;;;;27.37;52.20;99791.25;5083903;28;8979;-86
2022/08/09 08:31:57;;;;;;;;;40.00;36.00;;;;;26.98;54.55;99787.50;5069162;28;8858;-86
2022/08/09 08:34:32;;;;;;;;;39.25;33.75;;;;;27.02;54.44;99788.16;5053273;28;8987;-86
2022/08/09 08:37:05;;;;;;;;;34.00;32.75;;;;;27.19;53.52;99777.19;5091607;28;8864;-85
2022/08/09 08:39:43;;;;;;;;;37.75;34.75;;;;;28.06;51.44;99772.31;5072798;28;8844;-85
2022/08/09 08:42:12;;;;;;;;;33.25;31.00;;;;;28.07;51.03;99786.56;5087177;28;8860;-86
2022/08/09 08:44:43;;;;;;;;;39.25;34.75;;;;;28.84;49.69;99782.00;5092254;28;8909;-85
2022/08/09 08:47:15;;;;;;;;;42.00;37.00;;;;;28.47;50.03;99778.38;5075842;28;8936;-87
2022/08/09 08:49:45;;;;;;;;;36.00;33.25;;;;;28.68;49.74;99787.63;5095829;28;8862;-87
2022/08/09 08:52:18;;;;;;;;;44.50;37.25;;;;;29.41;47.83;99776.97;5090942;28;8900;-89
2022/08/09 08:55:08;;;;;;;;;31.25;30.50;;;;;28.67;49.07;99785.03;5088272;28;8877;-69
2022/08/09 08:57:37;;;;;;;;;39.50;35.75;;;;;28.28;50.60;99789.56;5085451;28;8865;-70
2022/08/09 09:00:09;;;;;;;;;35.50;32.75;;;;;29.25;48.23;99788.00;5085891;28;8850;-69
2022/08/09 09:03:00;;;;;;;;;43.50;37.25;;;;;27.73;52.54;99783.47;5084925;28;8857;-72
2022/08/09 09:05:40;;;;;;;;;42.75;37.25;;;;;28.10;51.75;99779.16;5073440;28;8858;-71
2022/08/09 09:08:34;;;;;;;;;35.00;32.00;;;;;29.19;48.98;99775.00;5085402;28;8869;-70
2022/08/09 09:11:11;;;;;;;;;28.50;28.50;;;;;29.51;48.08;99776.16;5076404;28;8861;-70
2022/08/09 09:13:50;;;;;;;;;37.75;33.75;;;;;28.18;49.81;99781.31;5085114;28;8853;-71
2022/08/09 09:16:28;;;;;;;;;33.00;31.75;;;;;29.05;48.43;99770.66;5086029;28;8861;-71
2022/08/09 09:19:01;;;;;;;;;38.25;34.00;;;;;28.48;49.14;99780.97;5067506;28;9011;-70
2022/08/09 09:22:00;;;;;;;;;31.75;30.75;;;;;28.35;49.60;99785.47;5084855;28;8857;-69
2022/08/09 09:24:35;;;;;;;;;38.25;35.00;;;;;28.21;50.72;99786.47;5087605;28;8848;-85
2022/08/09 09:27:06;;;;;;;;;35.75;32.75;;;;;28.93;48.73;99783.16;5080763;28;8986;-85
2022/08/09 09:29:39;;;;;;;;;34.25;32.00;;;;;29.67;46.94;99775.84;5051294;28;8871;-83
2022/08/09 09:32:29;;;;;;;;;34.00;32.00;;;;;28.05;49.58;99777.78;5083147;28;8866;-84
2022/08/09 09:35:09;;;;;;;;;44.25;38.00;;;;;27.97;49.89;99781.84;5069329;28;8850;-84
2022/08/09 09:37:40;;;;;;;;;34.00;32.00;;;;;28.24;49.40;99788.06;5068509;28;8884;-84
2022/08/09 09:40:11;;;;;;;;;40.00;33.50;;;;;28.86;47.41;99776.50;5086201;28;8888;-84
2022/08/09 09:42:40;;;;;;;;;39.25;34.00;;;;;29.63;45.89;99785.09;5047185;28;8867;-84
2022/08/09 09:45:14;;;;;;;;;37.00;33.25;;;;;29.87;44.70;99782.41;5066199;28;8912;-83
2022/08/09 09:47:56;;;;;;;;;38.75;34.25;;;;;29.98;45.43;99778.91;5056497;28;8936;-84
2022/08/09 09:50:53;;;;;;;;;32.75;31.50;;;;;30.78;43.12;99771.72;5012509;28;9636;-84
2022/08/09 09:53:24;;;;;;;;;42.25;34.00;;;;;30.96;43.00;99774.75;5009458;28;8946;-84
2022/08/09 09:56:13;;;;;;;;;37.75;33.75;;;;;28.77;47.29;99776.22;5006458;28;8878;-83
2022/08/09 09:59:00;;;;;;;;;39.50;33.50;;;;;29.70;44.83;99764.00;5006803;28;8968;-85
2022/08/09 10:01:29;;;;;;;;;36.50;32.50;;;;;30.04;43.86;99772.16;5009283;28;8878;-84
2022/08/09 10:04:14;;;;;;;;;32.75;31.00;;;;;28.73;45.67;99779.22;4984502;28;8844;-83
2022/08/09 10:07:00;;;;;;;;;35.50;32.25;;;;;27.71;49.65;99767.53;5022086;28;8881;-83
2022/08/09 10:09:48;;;;;;;;;37.00;33.00;;;;;28.51;49.01;99766.50;5015340;28;8902;-83
2022/08/09 10:12:28;;;;;;;;;39.00;32.75;;;;;29.18;45.92;99774.16;5036386;28;8992;-83
2022/08/09 10:15:14;;;;;;;;;32.50;30.75;;;;;29.28;45.28;99768.97;5027659;28;9010;-83
2022/08/09 10:18:11;;;;;;;;;38.00;33.50;;;;;28.40;46.71;99777.97;5028156;28;8985;-84
2022/08/09 10:20:40;;;;;;;;;28.75;28.75;;;;;28.06;47.20;99769.63;5011424;28;8860;-80
2022/08/09 10:23:17;;;;;;;;;33.75;31.00;;;;;28.72;46.10;99756.06;5010767;28;8844;-84
2022/08/09 10:25:49;;;;;;;;;33.25;31.75;;;;;28.74;46.39;99762.16;5042890;28;8863;-84
2022/08/09 10:28:40;;;;;;;;;37.25;34.00;;;;;29.00;45.97;99756.69;5015609;28;8879;-81
2022/08/09 10:31:10;;;;;;;;;35.00;32.00;;;;;29.46;44.84;99754.16;5070437;28;8883;-82
2022/08/09 10:33:59;;;;;;;;;29.25;29.25;;;;;29.74;43.64;99760.13;5109828;27;8816;-82
2022/08/09 10:36:39;;;;;;;;;34.50;31.50;;;;;29.29;44.19;99757.25;5093102;28;8889;-77
2022/08/09 10:39:11;;;;;;;;;37.00;32.25;;;;;28.85;44.41;99759.56;5089741;28;8855;-72
2022/08/09 10:41:46;;;;;;;;;31.25;30.50;;;;;29.24;43.66;99749.53;5070450;28;8846;-67
2022/08/09 10:44:19;;;;;;;;;28.25;28.25;;;;;29.89;42.57;99750.03;5071260;28;8847;-70
2022/08/09 10:47:07;;;;;;;;;31.75;30.25;;;;;29.82;42.54;99751.47;5070649;28;8862;-69
2022/08/09 10:50:06;;;;;;;;;30.50;27.75;;;;;30.14;41.66;99748.94;5079426;28;8965;-70
2022/08/09 10:53:04;;;;;;;;;28.75;27.75;;;;;30.02;41.94;99752.59;5076592;28;8968;-69
2022/08/09 10:55:39;;;;;;;;;31.25;30.00;;;;;29.70;42.33;99745.19;5071221;28;8880;-69
2022/08/09 10:58:31;;;;;;;;;21.00;20.25;;;;;29.47;43.18;99741.56;5102622;28;8866;-71
2022/08/09 11:01:02;;;;;;;;;29.25;28.25;;;;;29.91;42.51;99746.22;5070913;28;8862;-70
2022/08/09 11:04:12;;;;;;;;;26.25;25.00;;;;;30.48;41.49;99738.22;5085001;28;8974;-76
2022/08/09 11:07:30;;;;;;;;;28.50;26.50;;;;;31.30;39.51;99735.09;5080482;28;8822;-77
2022/08/09 11:10:57;;;;;;;;;21.00;21.00;;;;;31.89;37.63;99731.00;5072382;28;8866;-79
2022/08/09 11:13:36;;;;;;;;;24.00;23.25;;;;;32.42;37.58;99727.28;5080029;28;9028;-79
2022/08/09 11:16:33;;;;;;;;;26.50;25.50;;;;;32.57;36.22;99733.19;5089270;28;8982;-79
2022/08/09 11:19:05;;;;;;;;;22.75;21.75;;;;;32.75;36.34;99725.28;5084039;28;9624;-78
2022/08/09 11:22:07;;;;;;;;;19.75;18.00;;;;;33.60;34.86;99721.06;5070266;28;8870;-78
2022/08/09 11:25:07;;;;;;;;;16.75;16.50;;;;;33.86;34.05;99717.75;5030307;28;8852;-80
2022/08/09 11:27:40;;;;;;;;;21.75;21.75;;;;;34.09;33.25;99710.16;5029857;28;8896;-78
2022/08/09 11:30:34;;;;;;;;;24.25;20.75;;;;;34.33;32.93;99712.34;5037340;28;8844;-77
2022/08/09 11:33:11;;;;;;;;;17.25;16.25;;;;;34.46;32.21;99707.47;5051330;28;8856;-77
2022/08/09 11:35:43;;;;;;;;;24.75;21.00;;;;;34.76;31.94;99702.72;5066476;28;8832;-78
2022/08/09 11:38:19;;;;;;;;;25.50;25.25;;;;;33.17;34.16;99700.75;5070038;28;8863;-76
2022/08/09 11:40:51;;;;;;;;;23.25;23.25;;;;;33.43;34.08;99694.78;5051586;28;8840;-77
2022/08/09 11:43:50;;;;;;;;;25.00;24.75;;;;;32.84;34.70;99694.75;5030206;28;8898;-79
2022/08/09 11:46:20;;;;;;;;;22.75;22.75;;;;;33.58;33.88;99694.16;5047149;28;8840;-78
2022/08/09 11:49:01;;;;;;;;;22.25;22.00;;;;;33.93;33.16;99697.22;5047347;28;8864;-76
2022/08/09 11:52:03;;;;;;;;;16.75;16.50;;;;;34.71;32.15;99702.34;5047115;28;8934;-77
2022/08/09 11:55:29;;;;;;;;;17.75;17.25;;;;;34.90;31.54;99688.66;5030907;28;8855;-78
2022/08/09 11:58:45;;;;;;;;;17.50;17.00;;;;;34.65;31.26;99681.22;5048012;28;9707;-76
2022/08/09 12:01:19;;;;;;;;;18.75;17.25;;;;;32.91;34.11;99690.50;5067170;28;9625;-79
2022/08/09 12:04:09;;;;;;;;;17.00;15.00;;;;;33.75;32.83;99686.34;5091144;28;8889;-78
2022/08/09 12:06:56;;;;;;;;;20.25;19.25;;;;;32.53;35.03;99685.81;5091396;28;8848;-78
2022/08/09 12:09:27;;;;;;;;;18.25;16.75;;;;;32.11;35.86;99685.97;5055477;28;8878;-77
2022/08/09 12:12:04;;;;;;;;;18.75;18.25;;;;;31.60;36.71;99680.44;5090979;28;8847;-75
2022/08/09 12:14:48;;;;;;;;;15.50;14.75;;;;;32.08;36.02;99667.34;5071132;28;8842;-76
2022/08/09 12:17:36;;;;;;;;;19.75;18.75;;;;;32.44;35.68;99676.72;5071039;28;8854;-77